| time (UTC) | temp F | wind direction | speed MPH | gust MPH | rain 1hr in | rain 24hr in | rain mn in | humidity % | barometer mb |
| 20260905135612 | 84 | 327 | 0.0 | 62.0 | 0.00 | 0.00 | 0.00 | 73 | 1020.1 |
| 20260905134505 | 84 | 319 | 0.0 | 69.0 | 0.00 | 0.00 | 0.00 | 72 | 1020.1 |
| 20260905133814 | 84 | 312 | 64.0 | 77.0 | 0.00 | 0.00 | 0.00 | 72 | 1020.1 |
| 20260905132912 | 85 | 307 | 24.0 | 77.0 | 0.00 | 0.00 | 0.00 | 71 | 1020.1 |
| 20260905131803 | 84 | 309 | 0.0 | 77.0 | 0.00 | 0.00 | 0.00 | 71 | 1020.1 |
| 20260905130903 | 84 | 283 | 0.0 | 39.0 | 0.00 | 0.00 | 0.00 | 71 | 1021.1 |
| 20260905130005 | 83 | 263 | 39.0 | 39.0 | 0.00 | 0.00 | 0.00 | 70 | 1021.1 |
| 20260905125403 | 83 | 259 | 0.0 | 34.0 | 0.00 | 0.00 | 0.00 | 70 | 1021.1 |
| 20260905124503 | 86 | 294 | 24.0 | 40.0 | 0.00 | 0.00 | 0.00 | 67 | 1021.1 |
| 20260905123603 | 86 | 325 | 39.0 | 39.0 | 0.00 | 0.00 | 0.00 | 67 | 1021.1 |
| 20260905122703 | 87 | 49 | 25.0 | 70.0 | 0.00 | 0.00 | 0.00 | 66 | 1021.1 |
| 20260905122016 | 89 | 106 | 70.0 | 78.0 | 0.00 | 0.00 | 0.00 | 60 | 1021.1 |
| 20260905121117 | 89 | 86 | 77.0 | 77.0 | 0.00 | 0.00 | 0.00 | 60 | 1021.1 |
| 20260905120005 | 87 | 90 | 27.0 | 27.0 | 0.00 | 0.00 | 0.00 | 63 | 1021.1 |
| 20260905115614 | 87 | 90 | 0.0 | 39.0 | 0.00 | 0.00 | 0.00 | 62 | 1021.1 |
| 20260905114503 | 87 | 64 | 39.0 | 39.0 | 0.00 | 0.00 | 0.00 | 65 | 1021.1 |
| 20260905113603 | 86 | 79 | 39.0 | 39.0 | 0.00 | 0.00 | 0.00 | 66 | 1021.1 |
| 20260905112703 | 86 | 47 | 39.0 | 40.0 | 0.00 | 0.00 | 0.00 | 68 | 1021.1 |
| 20260905112013 | 84 | 13 | 39.0 | 77.0 | 0.00 | 0.00 | 0.00 | 68 | 1021.1 |
| 20260905110903 | 83 | 82 | 0.0 | 39.0 | 0.00 | 0.00 | 0.00 | 70 | 1021.1 |
| 20260905110003 | 82 | 77 | 0.0 | 38.0 | 0.00 | 0.00 | 0.00 | 74 | 1021.1 |
| 20260905105403 | 82 | 90 | 0.0 | 39.0 | 0.00 | 0.00 | 0.00 | 75 | 1022.1 |
| 20260905104713 | 81 | 95 | 0.0 | 39.0 | 0.00 | 0.00 | 0.00 | 77 | 1022.1 |
| 20260905103814 | 81 | 59 | 22.0 | 39.0 | 0.00 | 0.00 | 0.00 | 79 | 1022.1 |
| 20260905102915 | 79 | 79 | 0.0 | 78.0 | 0.00 | 0.00 | 0.00 | 81 | 1022.1 |
| 20260905101803 | 79 | 52 | 39.0 | 77.0 | 0.00 | 0.00 | 0.00 | 83 | 1022.1 |
| 20260905100905 | 78 | 72 | 0.0 | 39.0 | 0.00 | 0.00 | 0.00 | 87 | 1022.1 |
| 20260905100003 | 77 | 90 | 0.0 | 77.0 | 0.00 | 0.00 | 0.00 | 89 | 1022.1 |
| 20260905095403 | 77 | 37 | 39.0 | 77.0 | 0.00 | 0.00 | 0.00 | 89 | 1022.1 |
| 20260905094503 | 76 | 39 | 77.0 | 77.0 | 0.00 | 0.00 | 0.00 | 91 | 1022.1 |
| 20260905093603 | 76 | 116 | 0.0 | 77.0 | 0.00 | 0.00 | 0.00 | 92 | 1022.1 |
| 20260905092705 | 75 | 103 | 0.0 | 77.0 | 0.00 | 0.00 | 0.00 | 94 | 1022.1 |
| 20260905091803 | 74 | 204 | 39.0 | 39.0 | 0.00 | 0.00 | 0.00 | 95 | 1022.1 |
| 20260905090903 | 72 | 76 | 39.0 | 74.0 | 0.00 | 0.00 | 0.00 | 96 | 1022.1 |
| 20260905090004 | 73 | 57 | 0.0 | 39.0 | 0.00 | 0.00 | 0.00 | 97 | 1022.1 |
| 20260905085405 | 72 | 88 | 19.0 | 39.0 | 0.00 | 0.00 | 0.00 | 98 | 1022.1 |
| 20260905084503 | 72 | 48 | 39.0 | 39.0 | 0.00 | 0.00 | 0.00 | 98 | 1022.1 |
| 20260905083603 | 71 | 110 | 0.0 | 39.0 | 0.00 | 0.00 | 0.00 | 98 | 1022.1 |
| 20260905082703 | 71 | 90 | 0.0 | 90.0 | 0.00 | 0.00 | 0.00 | 98 | 1022.1 |
| 20260905081805 | 70 | 0 | 0.0 | 0.0 | 0.00 | 0.00 | 0.00 | 98 | 1022.1 |
| 20260905080905 | 70 | 0 | 0.0 | 0.0 | 0.00 | 0.00 | 0.00 | 98 | 1022.1 |
| 20260905080003 | 69 | 0 | 0.0 | 0.0 | 0.00 | 0.00 | 0.00 | 98 | 1022.1 |
| 20260905075405 | 68 | 0 | 0.0 | 0.0 | 0.00 | 0.00 | 0.00 | 98 | 1022.1 |
| 20260905074714 | 68 | 0 | 0.0 | 0.0 | 0.00 | 0.00 | 0.00 | 98 | 1022.1 |
| 20260905073813 | 68 | 0 | 0.0 | 0.0 | 0.00 | 0.00 | 0.00 | 98 | 1022.1 |
| 20260905072708 | 67 | 0 | 0.0 | 0.0 | 0.00 | 0.00 | 0.00 | 98 | 1022.1 |
| 20260905071805 | 67 | 0 | 0.0 | 0.0 | 0.00 | 0.00 | 0.00 | 98 | 1022.1 |
| 20260905070903 | 66 | 0 | 0.0 | 0.0 | 0.00 | 0.00 | 0.00 | 98 | 1022.1 |
| 20260905070004 | 66 | 0 | 0.0 | 0.0 | 0.00 | 0.00 | 0.00 | 98 | 1022.1 |
| 20260905065405 | 65 | 0 | 0.0 | 0.0 | 0.00 | 0.00 | 0.00 | 98 | 1022.1 |
| 20260905064505 | 64 | 0 | 0.0 | 0.0 | 0.00 | 0.00 | 0.00 | 98 | 1022.1 |
| 20260905063603 | 63 | 0 | 0.0 | 0.0 | 0.00 | 0.00 | 0.00 | 98 | 1022.1 |
| 20260905062703 | 63 | 0 | 0.0 | 0.0 | 0.00 | 0.00 | 0.00 | 98 | 1022.1 |
| 20260905061803 | 62 | 0 | 0.0 | 0.0 | 0.00 | 0.00 | 0.00 | 98 | 1022.1 |
| 20260905060903 | 62 | 0 | 0.0 | 0.0 | 0.00 | 0.00 | 0.00 | 98 | 1022.1 |
| 20260905060005 | 61 | 0 | 0.0 | 0.0 | 0.00 | 0.00 | 0.00 | 98 | 1022.1 |
| 20260905055613 | 61 | 0 | 0.0 | 0.0 | 0.00 | 0.00 | 0.00 | 98 | 1022.1 |
| 20260905054503 | 61 | 0 | 0.0 | 0.0 | 0.00 | 0.00 | 0.00 | 98 | 1022.1 |
| 20260905053603 | 61 | 0 | 0.0 | 0.0 | 0.00 | 0.00 | 0.00 | 98 | 1022.1 |
| 20260905052703 | 61 | 0 | 0.0 | 0.0 | 0.00 | 0.00 | 0.00 | 98 | 1022.1 |
| 20260905052015 | 61 | 0 | 0.0 | 0.0 | 0.00 | 0.00 | 0.00 | 98 | 1022.1 |
| 20260905050903 | 61 | 0 | 0.0 | 0.0 | 0.00 | 0.00 | 0.00 | 98 | 1021.1 |
| 20260905050215 | 61 | 0 | 0.0 | 0.0 | 0.00 | 0.00 | 0.00 | 98 | 1021.1 |
| 20260905045405 | 61 | 0 | 0.0 | 0.0 | 0.00 | 0.00 | 0.00 | 98 | 1021.1 |
| 20260905044503 | 61 | 0 | 0.0 | 0.0 | 0.00 | 0.00 | 0.00 | 98 | 1021.1 |
| 20260905043603 | 61 | 0 | 0.0 | 0.0 | 0.00 | 0.00 | 0.00 | 98 | 1021.1 |
| 20260905042913 | 61 | 0 | 0.0 | 0.0 | 0.00 | 0.00 | 0.00 | 98 | 1021.1 |
| 20260905041803 | 61 | 0 | 0.0 | 0.0 | 0.00 | 0.00 | 0.00 | 98 | 1021.1 |
| 20260905040903 | 61 | 0 | 0.0 | 0.0 | 0.00 | 0.00 | 0.00 | 98 | 1021.1 |
| 20260905040003 | 61 | 0 | 0.0 | 0.0 | 0.00 | 0.00 | 0.00 | 98 | 1021.1 |
| 20260905035613 | 61 | 0 | 0.0 | 0.0 | 0.00 | 0.00 | 0.00 | 98 | 1021.1 |
| 20260905034503 | 61 | 0 | 0.0 | 0.0 | 0.00 | 0.00 | 0.00 | 98 | 1021.1 |
| 20260905033815 | 61 | 0 | 0.0 | 0.0 | 0.00 | 0.00 | 0.00 | 98 | 1021.1 |
| 20260905032703 | 62 | 0 | 0.0 | 0.0 | 0.00 | 0.00 | 0.00 | 98 | 1021.1 |
| 20260905031803 | 62 | 0 | 0.0 | 0.0 | 0.00 | 0.00 | 0.00 | 98 | 1021.1 |
| 20260905030903 | 62 | 0 | 0.0 | 0.0 | 0.00 | 0.00 | 0.00 | 98 | 1021.1 |
| 20260905030213 | 62 | 0 | 0.0 | 0.0 | 0.00 | 0.00 | 0.00 | 98 | 1021.1 |
| 20260905025405 | 62 | 0 | 0.0 | 0.0 | 0.00 | 0.00 | 0.00 | 98 | 1021.1 |
| 20260905024503 | 62 | 0 | 0.0 | 0.0 | 0.00 | 0.00 | 0.00 | 98 | 1021.1 |
| 20260905023815 | 62 | 0 | 0.0 | 0.0 | 0.00 | 0.00 | 0.00 | 98 | 1021.1 |
| 20260905022706 | 62 | 0 | 0.0 | 0.0 | 0.00 | 0.00 | 0.00 | 98 | 1021.1 |
| 20260905021803 | 62 | 0 | 0.0 | 0.0 | 0.00 | 0.00 | 0.00 | 98 | 1021.1 |
| 20260905021113 | 62 | 0 | 0.0 | 0.0 | 0.00 | 0.00 | 0.00 | 98 | 1021.1 |
| 20260905020003 | 62 | 0 | 0.0 | 0.0 | 0.00 | 0.00 | 0.00 | 98 | 1021.1 |
| 20260905015405 | 62 | 0 | 0.0 | 0.0 | 0.00 | 0.00 | 0.00 | 98 | 1021.1 |
| 20260905014504 | 62 | 0 | 0.0 | 0.0 | 0.00 | 0.00 | 0.00 | 98 | 1021.1 |
| 20260905013605 | 62 | 0 | 0.0 | 0.0 | 0.00 | 0.00 | 0.00 | 98 | 1021.1 |
| 20260905012704 | 62 | 0 | 0.0 | 0.0 | 0.00 | 0.00 | 0.00 | 98 | 1021.1 |
| 20260905011803 | 63 | 0 | 0.0 | 0.0 | 0.00 | 0.00 | 0.00 | 98 | 1021.1 |
| 20260905010903 | 63 | 0 | 0.0 | 0.0 | 0.00 | 0.00 | 0.00 | 98 | 1021.1 |
| 20260905010214 | 63 | 0 | 0.0 | 0.0 | 0.00 | 0.00 | 0.00 | 98 | 1021.1 |
| 20260905005613 | 63 | 0 | 0.0 | 0.0 | 0.00 | 0.00 | 0.00 | 98 | 1021.1 |
| 20260905004503 | 63 | 0 | 0.0 | 0.0 | 0.00 | 0.00 | 0.00 | 98 | 1021.1 |
| 20260905003603 | 64 | 0 | 0.0 | 0.0 | 0.00 | 0.00 | 0.00 | 98 | 1021.1 |
| 20260905002703 | 64 | 0 | 0.0 | 0.0 | 0.00 | 0.00 | 0.00 | 98 | 1021.1 |
| 20260905001805 | 64 | 0 | 0.0 | 0.0 | 0.00 | 0.00 | 0.00 | 98 | 1021.1 |
| 20260905001112 | 64 | 0 | 0.0 | 0.0 | 0.00 | 0.00 | 0.00 | 98 | 1021.1 |
| 20260905000003 | 64 | 0 | 0.0 | 0.0 | 0.00 | 0.00 | 0.00 | 98 | 1021.1 |
| 20260904235405 | 64 | 0 | 0.0 | 0.0 | 0.00 | 0.00 | 0.00 | 98 | 1021.1 |
| 20260904234505 | 65 | 0 | 0.0 | 0.0 | 0.00 | 0.00 | 0.00 | 98 | 1021.1 |
| 20260904233603 | 65 | 0 | 0.0 | 0.0 | 0.00 | 0.00 | 0.00 | 98 | 1021.1 |
| 20260904232703 | 65 | 0 | 0.0 | 0.0 | 0.00 | 0.00 | 0.00 | 98 | 1021.1 |
| 20260904231803 | 65 | 0 | 0.0 | 0.0 | 0.00 | 0.00 | 0.00 | 98 | 1021.1 |
| 20260904230903 | 65 | 0 | 0.0 | 0.0 | 0.00 | 0.00 | 0.00 | 98 | 1021.1 |
| 20260904230003 | 65 | 0 | 0.0 | 0.0 | 0.00 | 0.00 | 0.00 | 98 | 1021.1 |
| 20260904225403 | 65 | 0 | 0.0 | 0.0 | 0.00 | 0.00 | 0.00 | 98 | 1021.1 |
| 20260904224712 | 66 | 0 | 0.0 | 0.0 | 0.00 | 0.00 | 0.00 | 98 | 1021.1 |
| 20260904223603 | 66 | 0 | 0.0 | 0.0 | 0.00 | 0.00 | 0.00 | 98 | 1021.1 |
| 20260904222703 | 66 | 0 | 0.0 | 0.0 | 0.00 | 0.00 | 0.00 | 98 | 1021.1 |
| 20260904221805 | 67 | 0 | 0.0 | 0.0 | 0.00 | 0.00 | 0.00 | 97 | 1021.1 |
| 20260904220905 | 67 | 0 | 0.0 | 0.0 | 0.00 | 0.00 | 0.00 | 97 | 1021.1 |
| 20260904220004 | 67 | 0 | 0.0 | 0.0 | 0.00 | 0.00 | 0.00 | 97 | 1021.1 |
| 20260904215403 | 68 | 0 | 0.0 | 0.0 | 0.00 | 0.00 | 0.00 | 97 | 1021.1 |
| 20260904214505 | 68 | 0 | 0.0 | 0.0 | 0.00 | 0.00 | 0.00 | 97 | 1021.1 |
| 20260904213603 | 69 | 0 | 0.0 | 0.0 | 0.00 | 0.00 | 0.00 | 97 | 1021.1 |
| 20260904212704 | 69 | 0 | 0.0 | 0.0 | 0.00 | 0.00 | 0.00 | 97 | 1021.1 |
| 20260904212014 | 69 | 0 | 0.0 | 0.0 | 0.00 | 0.00 | 0.00 | 97 | 1021.1 |
| 20260904210903 | 70 | 0 | 0.0 | 0.0 | 0.00 | 0.00 | 0.00 | 97 | 1021.1 |
| 20260904210214 | 70 | 0 | 0.0 | 0.0 | 0.00 | 0.00 | 0.00 | 98 | 1021.1 |
| 20260904205405 | 70 | 288 | 0.0 | 77.0 | 0.00 | 0.00 | 0.00 | 98 | 1021.1 |
| 20260904204503 | 71 | 0 | 0.0 | 0.0 | 0.00 | 0.00 | 0.00 | 98 | 1021.1 |
| 20260904203815 | 71 | 225 | 0.0 | 39.0 | 0.00 | 0.00 | 0.00 | 98 | 1021.1 |
| 20260904202914 | 70 | 0 | 0.0 | 0.0 | 0.00 | 0.00 | 0.00 | 98 | 1021.1 |
| 20260904201803 | 71 | 0 | 0.0 | 0.0 | 0.00 | 0.00 | 0.00 | 98 | 1021.1 |
| 20260904200903 | 71 | 0 | 0.0 | 0.0 | 0.00 | 0.00 | 0.00 | 98 | 1021.1 |
| 20260904200003 | 71 | 225 | 0.0 | 1.0 | 0.00 | 0.00 | 0.00 | 97 | 1021.1 |
| 20260904195405 | 71 | 315 | 0.0 | 1.0 | 0.00 | 0.00 | 0.00 | 97 | 1021.1 |
| 20260904194713 | 71 | 228 | 1.0 | 37.0 | 0.00 | 0.00 | 0.00 | 97 | 1021.1 |
| 20260904193604 | 71 | 315 | 0.0 | 57.0 | 0.00 | 0.00 | 0.00 | 96 | 1021.1 |
| 20260904192703 | 71 | 315 | 0.0 | 39.0 | 0.00 | 0.00 | 0.00 | 96 | 1021.1 |
| 20260904191803 | 71 | 315 | 39.0 | 39.0 | 0.00 | 0.00 | 0.00 | 95 | 1020.1 |
| 20260904190905 | 72 | 287 | 0.0 | 49.0 | 0.00 | 0.00 | 0.00 | 94 | 1020.1 |
| 20260904190003 | 72 | 317 | 49.0 | 77.0 | 0.00 | 0.00 | 0.00 | 94 | 1020.1 |
| 20260904185405 | 72 | 315 | 0.0 | 36.0 | 0.00 | 0.00 | 0.00 | 94 | 1019.1 |
| 20260904184503 | 73 | 302 | 9.0 | 72.0 | 0.00 | 0.00 | 0.00 | 93 | 1019.1 |
| 20260904183603 | 73 | 315 | 39.0 | 39.0 | 0.00 | 0.00 | 0.00 | 92 | 1019.1 |
| 20260904182705 | 74 | 0 | 0.0 | 0.0 | 0.00 | 0.00 | 0.00 | 91 | 1019.1 |
| 20260904181803 | 74 | 0 | 0.0 | 0.0 | 0.00 | 0.00 | 0.00 | 90 | 1019.1 |
| 20260904180905 | 74 | 0 | 0.0 | 0.0 | 0.00 | 0.00 | 0.00 | 90 | 1018.1 |
| 20260904180003 | 75 | 230 | 0.0 | 39.0 | 0.00 | 0.00 | 0.00 | 89 | 1018.1 |
| 20260904175403 | 75 | 232 | 39.0 | 39.0 | 0.00 | 0.00 | 0.00 | 89 | 1019.1 |
| 20260904174503 | 75 | 315 | 0.0 | 39.0 | 0.00 | 0.00 | 0.00 | 88 | 1019.1 |
| 20260904173814 | 76 | 225 | 0.0 | 33.0 | 0.00 | 0.00 | 0.00 | 87 | 1018.1 |
| 20260904172703 | 76 | 236 | 0.0 | 4.0 | 0.00 | 0.00 | 0.00 | 87 | 1018.1 |
| 20260904171803 | 76 | 308 | 0.0 | 36.0 | 0.00 | 0.00 | 0.00 | 86 | 1019.1 |
| 20260904170905 | 77 | 225 | 0.0 | 77.0 | 0.00 | 0.00 | 0.00 | 86 | 1018.1 |
| 20260904170005 | 77 | 236 | 0.0 | 60.0 | 0.00 | 0.00 | 0.00 | 84 | 1018.1 |
| 20260904165404 | 78 | 243 | 0.0 | 60.0 | 0.00 | 0.00 | 0.00 | 84 | 1018.1 |
| 20260904164505 | 78 | 0 | 0.0 | 0.0 | 0.00 | 0.00 | 0.00 | 84 | 1018.1 |
| 20260904163603 | 78 | 315 | 0.0 | 3.0 | 0.00 | 0.00 | 0.00 | 83 | 1018.1 |
| 20260904162703 | 79 | 315 | 3.0 | 49.0 | 0.00 | 0.00 | 0.00 | 83 | 1018.1 |
| 20260904162016 | 78 | 315 | 0.0 | 18.0 | 0.00 | 0.00 | 0.00 | 82 | 1018.1 |
| 20260904160905 | 79 | 273 | 0.0 | 49.0 | 0.00 | 0.00 | 0.00 | 80 | 1018.1 |
| 20260904160005 | 81 | 0 | 0.0 | 0.0 | 0.00 | 0.00 | 0.00 | 79 | 1018.1 |
| 20260904155405 | 81 | 310 | 0.0 | 26.0 | 0.00 | 0.00 | 0.00 | 78 | 1019.1 |
| 20260904154503 | 83 | 255 | 26.0 | 52.0 | 0.00 | 0.00 | 0.00 | 77 | 1019.1 |
| 20260904153603 | 84 | 229 | 2.0 | 37.0 | 0.00 | 0.00 | 0.00 | 76 | 1018.1 |
| 20260904152703 | 84 | 310 | 0.0 | 77.0 | 0.00 | 0.00 | 0.00 | 76 | 1018.1 |
| 20260904152016 | 84 | 315 | 4.0 | 77.0 | 0.00 | 0.00 | 0.00 | 76 | 1019.1 |
| 20260904150904 | 85 | 225 | 1.0 | 64.0 | 0.00 | 0.00 | 0.00 | 75 | 1018.1 |
| 20260904150214 | 85 | 315 | 0.0 | 27.0 | 0.00 | 0.00 | 0.00 | 75 | 1018.1 |
| 20260904145405 | 85 | 315 | 0.0 | 30.0 | 0.00 | 0.00 | 0.00 | 74 | 1018.1 |
| 20260904144713 | 85 | 240 | 26.0 | 39.0 | 0.00 | 0.00 | 0.00 | 75 | 1018.1 |
| 20260904143603 | 86 | 300 | 8.0 | 32.0 | 0.00 | 0.00 | 0.00 | 75 | 1019.1 |
| 20260904142708 | 84 | 315 | 0.0 | 39.0 | 0.00 | 0.00 | 0.00 | 76 | 1019.1 |
| 20260904141803 | 85 | 315 | 0.0 | 22.0 | 0.00 | 0.00 | 0.00 | 75 | 1019.1 |
| 20260904140903 | 85 | 305 | 0.0 | 77.0 | 0.00 | 0.00 | 0.00 | 75 | 1019.1 |
| 20260904140003 | 85 | 315 | 0.0 | 77.0 | 0.00 | 0.00 | 0.00 | 74 | 1019.1 |